Time;durP1;ratioP1;P1;durP2;ratioP2;P2;SDS_P1;SDS_P2;PMS_P1;PMS_P2;Temp;Humidity;BMP_temperature;BMP_pressure;BME280_temperature;BME280_humidity;BME280_pressure;Samples;Min_cycle;Max_cycle;Signal;HPM_P1;HPM_P2
2022/06/08 00:00:32;;;;;;;4.82;3.38;;;20.20;69.50;;;;;;10419460;28;20035;-57
2022/06/08 00:05:33;;;;;;;5.90;3.92;;;20.20;69.60;;;;;;10416602;28;20108;-57
2022/06/08 00:10:34;;;;;;;4.68;3.45;;;20.20;69.50;;;;;;10416423;28;20108;-57
2022/06/08 00:15:35;;;;;;;4.03;3.38;;;20.20;69.50;;;;;;10417136;28;20112;-57
2022/06/08 00:20:38;;;;;;;5.07;3.88;;;20.10;69.40;;;;;;10415956;28;20083;-57
2022/06/08 00:25:38;;;;;;;4.97;4.47;;;20.20;69.40;;;;;;10417114;28;20026;-56
2022/06/08 00:30:40;;;;;;;4.00;3.40;;;20.20;69.50;;;;;;10416681;28;20046;-55
2022/06/08 00:35:41;;;;;;;4.15;3.63;;;20.20;69.60;;;;;;10416461;28;20053;-57
2022/06/08 00:41:09;;;;;;;5.43;4.00;;;20.10;69.40;;;;;;10416303;28;20083;-57
2022/06/08 00:46:10;;;;;;;4.60;3.95;;;20.20;69.50;;;;;;10403087;28;20061;-56
2022/06/08 00:51:11;;;;;;;4.05;3.60;;;20.10;69.40;;;;;;10414362;28;20033;-57
2022/06/08 00:56:20;;;;;;;4.78;3.45;;;20.10;69.30;;;;;;10421239;28;20033;-57
2022/06/08 01:01:20;;;;;;;4.18;3.72;;;20.10;69.40;;;;;;10415449;28;20033;-57
2022/06/08 01:06:24;;;;;;;4.95;4.00;;;20.20;69.40;;;;;;10415289;28;20404;-57
2022/06/08 01:11:43;;;;;;;4.13;3.70;;;20.10;69.30;;;;;;10414918;28;20025;-57
2022/06/08 01:17:13;;;;;;;5.97;3.80;;;20.10;69.30;;;;;;10414033;28;20038;-56
2022/06/08 01:22:18;;;;;;;4.95;3.28;;;20.10;69.30;;;;;;10413980;28;20045;-57
2022/06/08 01:27:54;;;;;;;4.28;3.30;;;20.10;69.30;;;;;;10414734;28;20413;-56
2022/06/08 01:33:22;;;;;;;4.63;4.22;;;20.10;69.20;;;;;;10413081;28;20073;-57
2022/06/08 01:39:07;;;;;;;4.55;3.85;;;20.10;69.20;;;;;;10413804;28;20045;-57
2022/06/08 01:45:28;;;;;;;4.60;3.22;;;20.10;69.20;;;;;;10365885;28;20371;-56
2022/06/08 01:50:29;;;;;;;4.53;3.70;;;20.10;69.30;;;;;;10412592;28;20045;-57
2022/06/08 01:56:07;;;;;;;5.30;3.92;;;20.10;69.80;;;;;;10412202;28;20048;-57
2022/06/08 02:01:26;;;;;;;4.18;3.15;;;20.10;69.20;;;;;;10401709;28;20486;-57
2022/06/08 02:07:08;;;;;;;4.03;3.38;;;20.10;69.20;;;;;;10412992;28;20117;-57
2022/06/08 02:12:11;;;;;;;3.75;3.35;;;20.10;69.20;;;;;;10412258;28;20045;-57
2022/06/08 02:17:29;;;;;;;3.58;3.28;;;20.10;69.20;;;;;;10412088;28;20034;-57
2022/06/08 02:23:00;;;;;;;4.70;2.95;;;20.10;69.20;;;;;;10412939;28;20124;-57
2022/06/08 02:28:11;;;;;;;4.97;4.00;;;20.10;69.10;;;;;;10411901;28;20034;-57
2022/06/08 02:39:03;;;;;;;4.85;4.35;;;20.10;69.20;;;;;;10420110;28;20049;-57
2022/06/08 02:44:09;;;;;;;4.88;3.53;;;20.10;69.20;;;;;;10420657;28;20025;-55
2022/06/08 02:49:10;;;;;;;3.80;2.92;;;20.10;69.10;;;;;;10420651;28;20037;-57
2022/06/08 02:54:26;;;;;;;4.22;3.25;;;20.10;69.20;;;;;;10420189;28;20481;-56
2022/06/08 02:59:39;;;;;;;4.57;4.15;;;20.10;69.20;;;;;;10414163;28;20347;-56
2022/06/08 03:05:01;;;;;;;4.20;3.80;;;20.10;69.10;;;;;;10419352;28;20041;-57
2022/06/08 03:10:09;;;;;;;4.05;3.42;;;20.10;69.20;;;;;;10415210;28;20032;-56
2022/06/08 03:15:15;;;;;;;4.78;3.30;;;20.10;69.20;;;;;;10417893;28;20037;-57
2022/06/08 03:20:20;;;;;;;4.80;3.80;;;20.10;69.10;;;;;;10419593;28;20036;-57
2022/06/08 03:25:23;;;;;;;3.88;3.20;;;20.10;69.10;;;;;;10419266;28;20021;-57
2022/06/08 03:30:24;;;;;;;4.75;4.25;;;20.00;69.00;;;;;;10418800;28;20037;-57
2022/06/08 03:35:24;;;;;;;4.47;3.80;;;20.00;69.00;;;;;;10418410;28;20042;-57
2022/06/08 03:40:27;;;;;;;5.35;3.55;;;20.00;69.00;;;;;;10418571;28;20044;-57
2022/06/08 03:45:40;;;;;;;5.07;3.50;;;20.10;69.00;;;;;;10417191;28;20033;-56
2022/06/08 03:50:43;;;;;;;4.32;3.25;;;20.10;69.10;;;;;;10417895;28;20102;-57
2022/06/08 03:55:47;;;;;;;4.57;3.88;;;20.00;69.00;;;;;;10421957;28;20029;-56
2022/06/08 04:00:48;;;;;;;4.72;3.70;;;20.00;69.00;;;;;;10396334;28;20071;-57
2022/06/08 04:05:49;;;;;;;4.93;3.83;;;20.00;69.00;;;;;;10407592;28;20038;-56
2022/06/08 04:10:49;;;;;;;5.05;3.88;;;20.00;68.90;;;;;;10417424;28;20025;-57
2022/06/08 04:15:50;;;;;;;4.65;3.47;;;20.00;69.00;;;;;;10415759;28;20040;-57
2022/06/08 04:20:54;;;;;;;3.92;3.28;;;20.10;69.00;;;;;;10417032;28;20032;-57
2022/06/08 04:25:56;;;;;;;4.70;3.75;;;20.00;69.00;;;;;;10415619;28;20164;-57
2022/06/08 04:30:57;;;;;;;3.25;2.92;;;20.10;69.00;;;;;;10416117;28;20429;-56
2022/06/08 04:35:58;;;;;;;5.05;3.67;;;20.00;68.90;;;;;;10416410;28;20056;-57
2022/06/08 04:41:01;;;;;;;4.13;3.65;;;20.00;68.90;;;;;;10416072;28;20037;-56
2022/06/08 04:46:02;;;;;;;4.35;3.30;;;20.00;68.90;;;;;;10416174;28;20075;-56
2022/06/08 04:51:03;;;;;;;4.03;3.55;;;20.00;68.90;;;;;;10399375;28;20084;-57
2022/06/08 04:56:05;;;;;;;4.90;3.88;;;20.00;69.00;;;;;;10408795;28;20363;-56
2022/06/08 05:01:06;;;;;;;6.32;3.88;;;20.00;69.50;;;;;;10406637;28;20034;-57
2022/06/08 05:06:06;;;;;;;6.05;3.88;;;20.00;68.90;;;;;;10411212;28;20026;-58
2022/06/08 05:11:08;;;;;;;13.07;3.50;;;20.00;69.30;;;;;;10414236;28;20108;-59
2022/06/08 05:16:09;;;;;;;5.78;3.70;;;20.10;70.10;;;;;;10413667;28;20553;-60
2022/06/08 05:21:09;;;;;;;5.95;3.47;;;20.20;70.00;;;;;;10406128;28;20029;-58
2022/06/08 05:26:12;;;;;;;12.27;3.85;;;20.20;70.80;;;;;;10412361;28;20033;-58
2022/06/08 05:31:13;;;;;;;7.93;3.47;;;20.20;70.90;;;;;;10412130;28;20075;-56
2022/06/08 05:36:16;;;;;;;6.65;3.47;;;20.20;70.80;;;;;;10412546;28;20497;-58
2022/06/08 05:41:17;;;;;;;8.30;2.95;;;20.30;70.90;;;;;;10411553;28;20095;-58
2022/06/08 05:46:18;;;;;;;13.07;4.78;;;20.20;70.60;;;;;;10412034;28;20556;-59
2022/06/08 05:51:18;;;;;;;12.52;5.13;;;20.20;70.60;;;;;;10399482;28;20152;-59
2022/06/08 05:56:19;;;;;;;14.82;3.85;;;20.20;70.70;;;;;;10417233;28;20038;-57
2022/06/08 06:01:20;;;;;;;15.43;5.10;;;20.20;70.80;;;;;;10412366;28;20076;-58
2022/06/08 06:06:20;;;;;;;14.75;4.93;;;20.20;70.60;;;;;;10411337;28;20375;-57
2022/06/08 06:11:21;;;;;;;11.30;4.05;;;20.20;70.60;;;;;;10412342;28;20029;-59
2022/06/08 06:16:22;;;;;;;14.45;4.10;;;20.20;71.00;;;;;;10412570;28;20033;-55
2022/06/08 06:21:26;;;;;;;12.27;4.38;;;20.20;70.60;;;;;;10412102;28;20233;-56
2022/06/08 06:26:27;;;;;;;9.85;3.80;;;20.20;70.50;;;;;;10412253;28;20045;-55
2022/06/08 06:31:46;;;;;;;11.88;4.82;;;20.20;70.50;;;;;;10411256;28;20036;-53
2022/06/08 06:36:48;;;;;;;8.32;3.78;;;20.20;70.40;;;;;;10412088;28;20026;-56
2022/06/08 06:41:49;;;;;;;9.98;3.78;;;20.20;70.30;;;;;;10411803;28;20029;-58
2022/06/08 06:46:50;;;;;;;9.18;3.35;;;20.20;70.30;;;;;;10411993;28;20065;-59
2022/06/08 06:51:52;;;;;;;9.55;4.38;;;20.20;70.30;;;;;;10406814;28;20037;-59
2022/06/08 06:56:53;;;;;;;7.97;3.30;;;20.20;70.20;;;;;;10412709;28;20030;-58
2022/06/08 07:01:53;;;;;;;7.93;3.85;;;20.20;70.20;;;;;;10410674;28;20109;-55
2022/06/08 07:06:54;;;;;;;11.35;3.90;;;20.20;70.40;;;;;;10411093;28;20108;-55
2022/06/08 07:11:55;;;;;;;18.85;4.15;;;20.20;70.40;;;;;;10410403;28;20039;-60
2022/06/08 07:16:56;;;;;;;8.70;3.55;;;20.20;70.60;;;;;;10410584;28;20095;-60
2022/06/08 07:21:57;;;;;;;15.43;4.47;;;20.20;70.60;;;;;;10417714;28;20048;-58
2022/06/08 07:26:58;;;;;;;9.98;4.53;;;20.20;70.70;;;;;;10416395;28;20033;-59
2022/06/08 07:32:00;;;;;;;13.70;4.28;;;20.20;70.70;;;;;;10416100;28;20512;-59
2022/06/08 07:37:00;;;;;;;10.00;3.92;;;20.30;70.70;;;;;;10416775;28;20040;-59
2022/06/08 07:42:02;;;;;;;8.80;4.18;;;20.30;70.40;;;;;;10416328;28;20029;-59
2022/06/08 07:47:03;;;;;;;7.03;3.40;;;20.50;70.10;;;;;;10416730;28;20021;-59
2022/06/08 07:52:14;;;;;;;11.25;4.47;;;20.60;69.60;;;;;;10417443;28;20029;-59
2022/06/08 07:57:23;;;;;;;6.00;3.80;;;20.70;69.50;;;;;;10417035;28;20033;-60
2022/06/08 08:02:23;;;;;;;10.02;4.18;;;20.80;70.10;;;;;;10414941;28;20024;-58
2022/06/08 08:07:24;;;;;;;6.47;4.05;;;20.80;69.70;;;;;;10416932;28;20546;-58
2022/06/08 08:12:25;;;;;;;10.55;3.95;;;20.80;70.00;;;;;;10415973;28;20108;-59
2022/06/08 08:17:25;;;;;;;9.65;4.85;;;20.80;70.00;;;;;;10415429;28;20033;-59
2022/06/08 08:22:27;;;;;;;7.32;4.88;;;20.90;70.20;;;;;;10415473;28;20473;-59
2022/06/08 08:27:27;;;;;;;6.20;4.45;;;20.90;70.40;;;;;;10409314;28;20037;-59
2022/06/08 08:32:28;;;;;;;8.77;5.25;;;20.90;70.60;;;;;;10408760;28;20049;-59
2022/06/08 08:37:29;;;;;;;7.00;4.72;;;20.90;70.80;;;;;;10414880;28;20113;-59
2022/06/08 08:42:30;;;;;;;6.88;4.85;;;20.90;71.00;;;;;;10414137;28;20114;-59
2022/06/08 08:47:59;;;;;;;6.75;5.57;;;20.90;71.20;;;;;;10403690;28;20507;-58
2022/06/08 08:53:15;;;;;;;6.50;4.35;;;21.00;71.20;;;;;;10403345;28;20036;-59
2022/06/08 08:58:25;;;;;;;6.65;4.90;;;21.10;70.30;;;;;;10414598;28;20042;-59
2022/06/08 09:03:39;;;;;;;5.03;3.88;;;20.90;70.60;;;;;;10406051;28;20103;-60
2022/06/08 09:08:43;;;;;;;6.82;4.43;;;20.80;70.90;;;;;;10408080;28;20049;-59
2022/06/08 09:13:54;;;;;;;7.30;4.25;;;20.70;71.00;;;;;;10411935;28;20485;-59
2022/06/08 09:18:55;;;;;;;10.00;3.55;;;20.70;71.10;;;;;;10411416;28;20040;-59
2022/06/08 09:24:20;;;;;;;6.65;4.20;;;20.70;71.00;;;;;;10412664;28;20022;-59
2022/06/08 09:29:26;;;;;;;4.60;3.72;;;20.60;71.00;;;;;;10412503;28;20037;-60
2022/06/08 09:34:34;;;;;;;8.60;4.18;;;20.60;71.00;;;;;;10412367;28;20037;-60
2022/06/08 09:39:36;;;;;;;4.53;3.88;;;20.60;70.90;;;;;;10412259;28;20072;-60
2022/06/08 09:44:51;;;;;;;4.88;3.50;;;20.60;71.00;;;;;;10412075;28;20025;-59
2022/06/08 09:56:24;;;;;;;6.25;3.28;;;20.50;70.80;;;;;;10411643;28;20088;-60
2022/06/08 10:01:43;;;;;;;5.97;3.42;;;20.50;70.80;;;;;;10401060;28;20112;-59
2022/06/08 10:06:57;;;;;;;4.00;3.35;;;20.50;70.80;;;;;;10403473;28;20108;-59
2022/06/08 10:12:58;;;;;;;5.03;3.38;;;20.50;70.80;;;;;;10411163;28;20029;-60
2022/06/08 10:18:31;;;;;;;5.18;3.25;;;20.50;70.70;;;;;;10407541;28;20055;-59
2022/06/08 10:23:45;;;;;;;5.95;3.55;;;20.50;70.70;;;;;;10411022;28;20034;-59
2022/06/08 10:28:53;;;;;;;4.80;3.40;;;20.50;70.70;;;;;;10406526;28;20025;-59
2022/06/08 10:34:20;;;;;;;4.55;3.08;;;20.50;70.60;;;;;;10409904;28;20046;-60
2022/06/08 10:39:32;;;;;;;5.00;3.30;;;20.50;70.60;;;;;;10405609;28;20601;-62
2022/06/08 10:44:54;;;;;;;4.68;3.33;;;20.50;70.50;;;;;;10398785;28;20123;-59
2022/06/08 10:50:00;;;;;;;5.32;3.53;;;20.50;70.50;;;;;;10409325;28;20037;-61
2022/06/08 10:55:13;;;;;;;8.93;3.28;;;20.50;70.50;;;;;;10416844;28;20057;-60
2022/06/08 11:00:20;;;;;;;9.70;3.80;;;20.50;70.40;;;;;;10417176;28;20037;-61
2022/06/08 11:05:45;;;;;;;7.30;3.08;;;20.50;70.50;;;;;;10428671;28;20056;-61
2022/06/08 11:10:53;;;;;;;5.65;3.55;;;20.50;70.50;;;;;;10418237;28;20033;-62
2022/06/08 11:16:27;;;;;;;6.90;3.33;;;20.50;70.70;;;;;;10418899;28;20029;-58
2022/06/08 11:21:45;;;;;;;4.50;3.45;;;20.50;70.70;;;;;;10418513;28;20041;-61
2022/06/08 11:27:22;;;;;;;4.82;3.05;;;20.50;70.80;;;;;;10417418;28;20116;-60
2022/06/08 11:32:30;;;;;;;7.65;4.22;;;20.50;70.80;;;;;;10417560;28;20041;-60
2022/06/08 11:37:33;;;;;;;6.43;2.95;;;20.50;71.40;;;;;;10418069;28;20033;-60
2022/06/08 11:43:04;;;;;;;7.78;3.55;;;20.50;70.80;;;;;;10416551;28;20088;-60
2022/06/08 11:48:21;;;;;;;11.20;3.50;;;20.50;71.10;;;;;;10384111;28;20033;-59
2022/06/08 11:53:40;;;;;;;6.15;3.20;;;20.60;71.10;;;;;;10417642;28;20044;-59
2022/06/08 11:58:49;;;;;;;5.38;2.70;;;20.50;71.10;;;;;;10415722;28;20395;-59
2022/06/08 12:04:04;;;;;;;14.40;3.42;;;20.40;70.90;;;;;;10416061;28;20026;-59
2022/06/08 12:09:20;;;;;;;7.97;4.05;;;20.40;70.90;;;;;;10415824;28;20087;-59
2022/06/08 12:14:27;;;;;;;5.55;3.47;;;20.40;71.00;;;;;;10416529;28;20033;-58
2022/06/08 12:19:40;;;;;;;7.78;3.15;;;20.40;71.00;;;;;;10415121;28;20034;-59
2022/06/08 12:24:40;;;;;;;14.90;4.53;;;20.40;70.90;;;;;;10416008;28;20025;-59
2022/06/08 12:29:58;;;;;;;16.63;5.30;;;20.40;71.50;;;;;;10415380;28;20025;-58
2022/06/08 12:35:04;;;;;;;18.23;4.63;;;20.50;71.40;;;;;;10413708;28;20084;-58
2022/06/08 12:40:17;;;;;;;10.25;3.75;;;20.50;71.80;;;;;;10412825;28;20037;-57
2022/06/08 12:45:36;;;;;;;13.32;4.20;;;20.50;71.90;;;;;;10414298;28;20037;-59
2022/06/08 12:50:36;;;;;;;25.83;11.03;;;20.50;71.40;;;;;;10414404;28;20056;-58
2022/06/08 12:55:40;;;;;;;21.58;10.18;;;20.50;72.80;;;;;;10413694;28;20028;-58
2022/06/08 13:00:53;;;;;;;27.17;9.35;;;20.60;76.90;;;;;;10414240;28;20030;-58
2022/06/08 13:05:55;;;;;;;25.05;6.70;;;20.70;77.40;;;;;;10413792;28;20029;-58
2022/06/08 13:11:00;;;;;;;25.23;8.18;;;20.80;74.30;;;;;;10414108;28;20030;-58
2022/06/08 13:16:07;;;;;;;17.40;6.75;;;20.90;73.70;;;;;;10409084;28;20037;-58
2022/06/08 13:21:11;;;;;;;20.40;7.00;;;20.80;73.30;;;;;;10413246;28;20029;-58
2022/06/08 13:26:27;;;;;;;18.45;7.15;;;20.90;72.90;;;;;;10411706;28;20053;-59
2022/06/08 13:31:27;;;;;;;16.38;6.32;;;20.90;73.10;;;;;;10412388;28;20477;-56
2022/06/08 13:36:34;;;;;;;15.35;6.32;;;20.90;72.50;;;;;;10411882;28;20057;-58
2022/06/08 13:41:39;;;;;;;16.48;6.68;;;21.00;73.00;;;;;;10412673;28;20041;-57
2022/06/08 13:46:41;;;;;;;10.95;5.78;;;21.00;74.40;;;;;;10413180;28;20116;-57
2022/06/08 13:51:43;;;;;;;12.80;6.18;;;21.20;74.10;;;;;;10421758;28;20058;-58
2022/06/08 13:56:44;;;;;;;14.20;4.20;;;21.30;73.90;;;;;;10413016;28;20036;-58
2022/06/08 14:01:46;;;;;;;16.50;5.80;;;21.30;73.40;;;;;;10402646;28;20030;-58
2022/06/08 14:17:27;;;;;;;13.57;4.72;;;20.90;73.90;;;;;;10408811;28;20038;-57
2022/06/08 14:22:34;;;;;;;16.98;4.85;;;20.80;74.30;;;;;;10410986;28;20036;-58
2022/06/08 14:27:37;;;;;;;10.20;4.68;;;20.70;74.40;;;;;;10411881;28;20075;-58
2022/06/08 14:32:42;;;;;;;9.25;5.38;;;20.70;74.60;;;;;;10418676;28;20490;-58
2022/06/08 14:37:43;;;;;;;15.05;4.20;;;20.70;74.50;;;;;;10418828;28;20395;-57
2022/06/08 14:42:44;;;;;;;11.15;3.92;;;20.60;74.20;;;;;;10415141;28;20135;-57
2022/06/08 14:47:46;;;;;;;12.73;4.10;;;20.60;74.30;;;;;;10436778;28;20025;-57
2022/06/08 14:52:47;;;;;;;11.63;3.88;;;20.60;74.00;;;;;;10428517;28;20117;-58
2022/06/08 14:57:49;;;;;;;10.32;3.97;;;20.60;74.00;;;;;;10402350;28;20113;-57
2022/06/08 15:02:50;;;;;;;10.20;3.30;;;20.60;73.90;;;;;;10418508;28;20513;-57
2022/06/08 15:07:51;;;;;;;6.22;2.85;;;20.60;73.90;;;;;;10434832;28;20124;-57
2022/06/08 15:12:52;;;;;;;11.30;4.15;;;20.60;73.80;;;;;;10419310;28;20116;-57
2022/06/08 15:17:58;;;;;;;10.20;3.53;;;20.60;73.80;;;;;;10417065;28;20022;-56
2022/06/08 15:23:01;;;;;;;9.73;3.58;;;20.60;73.60;;;;;;10416468;28;20505;-57
2022/06/08 15:28:22;;;;;;;12.75;3.42;;;20.60;73.40;;;;;;10419322;28;20044;-57
2022/06/08 15:33:27;;;;;;;5.95;3.20;;;20.60;73.50;;;;;;10417434;28;20050;-57
2022/06/08 15:38:32;;;;;;;7.32;3.03;;;20.60;73.40;;;;;;10418234;28;20041;-57
2022/06/08 15:43:33;;;;;;;7.25;2.88;;;20.50;73.30;;;;;;10418422;28;20104;-57
2022/06/08 15:48:34;;;;;;;6.85;2.80;;;20.50;73.20;;;;;;10423660;28;20116;-57
2022/06/08 15:53:42;;;;;;;5.28;2.78;;;20.50;73.20;;;;;;10418156;28;20033;-57
2022/06/08 15:58:48;;;;;;;10.20;3.38;;;20.50;73.30;;;;;;10411892;28;20466;-58
2022/06/08 16:03:48;;;;;;;21.17;5.57;;;20.60;73.30;;;;;;10409066;28;20037;-54
2022/06/08 16:08:49;;;;;;;12.23;4.28;;;20.80;74.10;;;;;;10415788;28;20128;-57
2022/06/08 16:13:50;;;;;;;17.70;4.22;;;20.90;74.70;;;;;;10415935;28;20033;-53
2022/06/08 16:18:51;;;;;;;17.83;4.78;;;20.90;74.40;;;;;;10416891;28;20111;-56
2022/06/08 16:23:52;;;;;;;14.90;4.72;;;20.90;74.90;;;;;;10415250;28;20025;-56
2022/06/08 16:28:54;;;;;;;18.88;5.40;;;20.90;74.80;;;;;;10416197;28;20037;-57
2022/06/08 16:33:55;;;;;;;10.43;3.67;;;21.00;74.10;;;;;;10416445;28;20092;-53
2022/06/08 16:38:56;;;;;;;13.02;4.40;;;21.00;74.20;;;;;;10415361;28;20501;-52
2022/06/08 16:43:56;;;;;;;14.20;4.15;;;20.90;74.50;;;;;;10406623;28;20060;-60
2022/06/08 16:48:57;;;;;;;15.80;4.25;;;20.90;74.20;;;;;;10411386;28;20105;-57
2022/06/08 16:53:58;;;;;;;16.58;4.03;;;20.90;74.30;;;;;;10413317;28;20037;-58
2022/06/08 17:04:18;;;;;;;17.25;4.57;;;20.80;74.20;;;;;;10409741;28;20237;-58
2022/06/08 17:09:19;;;;;;;18.20;4.65;;;20.70;74.20;;;;;;10414499;28;20037;-58
2022/06/08 17:14:21;;;;;;;18.30;4.78;;;20.70;74.20;;;;;;10413066;28;20036;-58
2022/06/08 17:19:21;;;;;;;22.05;5.18;;;20.60;74.10;;;;;;10395549;28;20041;-58
2022/06/08 17:24:23;;;;;;;12.40;3.72;;;20.60;74.10;;;;;;10413819;28;20030;-57
2022/06/08 17:29:24;;;;;;;9.13;3.65;;;20.60;74.00;;;;;;10402941;28;20079;-58
2022/06/08 17:34:24;;;;;;;15.30;4.13;;;20.60;73.90;;;;;;10388470;28;20552;-58
2022/06/08 17:39:25;;;;;;;10.73;3.88;;;20.60;73.70;;;;;;10414120;28;20152;-58
2022/06/08 17:44:26;;;;;;;16.77;5.13;;;20.60;74.00;;;;;;10412966;28;20044;-57
2022/06/08 17:49:27;;;;;;;13.65;4.47;;;20.60;74.20;;;;;;10422740;28;20066;-57
2022/06/08 17:54:28;;;;;;;19.33;4.97;;;20.60;74.40;;;;;;10412012;28;20053;-58
2022/06/08 17:59:30;;;;;;;19.08;4.50;;;20.60;74.50;;;;;;10400432;28;20037;-58
2022/06/08 18:04:31;;;;;;;8.80;3.33;;;20.60;74.30;;;;;;10412686;28;20139;-57
2022/06/08 18:09:32;;;;;;;17.77;4.13;;;20.60;74.20;;;;;;10411367;28;20112;-58
2022/06/08 18:14:41;;;;;;;15.57;4.50;;;20.60;74.30;;;;;;10412548;28;20087;-57
2022/06/08 18:19:42;;;;;;;15.10;3.75;;;20.60;74.20;;;;;;10411555;28;20034;-50
2022/06/08 18:24:44;;;;;;;9.07;3.47;;;20.60;74.10;;;;;;10411926;28;20048;-54
2022/06/08 18:29:45;;;;;;;8.52;3.45;;;20.60;74.20;;;;;;10412950;28;20049;-54
2022/06/08 18:34:48;;;;;;;13.95;5.00;;;20.60;74.30;;;;;;10411571;28;20042;-54
2022/06/08 18:39:49;;;;;;;11.80;4.88;;;20.50;74.40;;;;;;10405867;28;20050;-54
2022/06/08 18:44:51;;;;;;;12.25;6.85;;;20.60;74.40;;;;;;10405054;28;20088;-58
2022/06/08 18:49:54;;;;;;;9.32;4.95;;;20.60;74.40;;;;;;10415806;28;20038;-58
2022/06/08 18:54:54;;;;;;;9.43;4.50;;;20.60;74.10;;;;;;10410497;28;20041;-57
2022/06/08 18:59:55;;;;;;;9.63;4.53;;;20.50;74.10;;;;;;10412161;28;20480;-57
2022/06/08 19:04:56;;;;;;;6.43;3.63;;;20.50;74.00;;;;;;10411849;28;20113;-55
2022/06/08 19:09:57;;;;;;;12.93;4.57;;;20.50;73.80;;;;;;10409684;28;20120;-56
2022/06/08 19:14:58;;;;;;;5.97;3.85;;;20.50;74.60;;;;;;10412736;28;20078;-57
2022/06/08 19:25:18;;;;;;;6.53;3.83;;;20.50;73.80;;;;;;10417978;28;20045;-57
2022/06/08 19:30:19;;;;;;;5.00;3.72;;;20.50;73.80;;;;;;10418090;28;20063;-57
2022/06/08 19:35:20;;;;;;;8.13;3.85;;;20.40;73.70;;;;;;10417725;28;20076;-57
2022/06/08 19:40:21;;;;;;;5.22;3.90;;;20.50;73.60;;;;;;10417919;28;20048;-57
2022/06/08 19:45:21;;;;;;;8.65;4.63;;;20.40;73.40;;;;;;10418912;28;20108;-57
2022/06/08 19:50:22;;;;;;;7.72;3.15;;;20.40;73.30;;;;;;10420293;28;20025;-57
2022/06/08 19:55:24;;;;;;;5.32;3.88;;;20.40;73.30;;;;;;10412738;28;20375;-57
2022/06/08 20:00:25;;;;;;;6.88;4.32;;;20.40;73.20;;;;;;10418060;28;20025;-58
2022/06/08 20:05:26;;;;;;;7.88;4.07;;;20.40;73.10;;;;;;10416236;28;20022;-57
2022/06/08 20:10:27;;;;;;;6.75;3.97;;;20.40;73.00;;;;;;10416403;28;20026;-56
2022/06/08 20:15:30;;;;;;;5.22;3.30;;;20.40;73.00;;;;;;10408094;28;20025;-57
2022/06/08 20:20:32;;;;;;;7.93;3.95;;;20.40;72.90;;;;;;10425994;28;20053;-58
2022/06/08 20:25:36;;;;;;;6.65;4.15;;;20.40;73.00;;;;;;10414237;28;20544;-57
2022/06/08 20:30:38;;;;;;;6.93;3.50;;;20.40;72.80;;;;;;10413045;28;20580;-57
2022/06/08 20:35:39;;;;;;;5.18;3.28;;;20.40;72.80;;;;;;10415546;28;20060;-57
2022/06/08 20:40:42;;;;;;;6.65;3.83;;;20.40;72.80;;;;;;10416820;28;20488;-57
2022/06/08 20:45:43;;;;;;;6.97;3.63;;;20.40;72.80;;;;;;10402330;28;20021;-56
2022/06/08 20:50:46;;;;;;;5.68;3.40;;;20.40;72.70;;;;;;10425735;28;20033;-57
2022/06/08 20:55:48;;;;;;;6.35;3.30;;;20.40;72.60;;;;;;10414995;28;20123;-58
2022/06/08 21:00:51;;;;;;;6.07;3.38;;;20.30;72.70;;;;;;10415685;28;20033;-57
2022/06/08 21:05:52;;;;;;;6.03;3.72;;;20.30;72.60;;;;;;10410168;28;20541;-57
2022/06/08 21:10:53;;;;;;;6.93;3.65;;;20.40;72.70;;;;;;10415177;28;20123;-57
2022/06/08 21:15:55;;;;;;;5.88;3.13;;;20.30;72.50;;;;;;10414867;28;20549;-56
2022/06/08 21:20:56;;;;;;;4.82;3.28;;;20.30;72.50;;;;;;10414768;28;20116;-57
2022/06/08 21:25:59;;;;;;;5.05;3.10;;;20.30;72.50;;;;;;10414811;28;20036;-57
2022/06/08 21:31:00;;;;;;;5.82;3.60;;;20.30;72.40;;;;;;10414050;28;20084;-59
2022/06/08 21:36:02;;;;;;;5.65;3.90;;;20.30;72.30;;;;;;10412036;28;20073;-56
2022/06/08 21:41:03;;;;;;;4.88;2.90;;;20.30;72.40;;;;;;10414280;28;20023;-57
2022/06/08 21:46:04;;;;;;;5.45;3.42;;;20.30;72.30;;;;;;10413831;28;20116;-57
2022/06/08 21:51:07;;;;;;;4.65;2.92;;;20.30;72.30;;;;;;10417330;28;20025;-57
2022/06/08 21:56:08;;;;;;;7.88;2.97;;;20.30;72.20;;;;;;10412142;28;20037;-57
2022/06/08 22:01:17;;;;;;;5.32;3.03;;;20.30;72.30;;;;;;10412153;28;20034;-56
2022/06/08 22:06:18;;;;;;;;;;;20.30;72.20;;;;;;10412505;28;20112;-57
2022/06/08 22:11:27;;;;;;;4.03;2.70;;;20.20;72.00;;;;;;10413225;28;19920;-57
2022/06/08 22:16:29;;;;;;;9.57;2.97;;;20.20;72.10;;;;;;10413023;28;20033;-57
2022/06/08 22:21:30;;;;;;;5.45;2.97;;;20.20;72.10;;;;;;10412954;28;20040;-57
2022/06/08 22:26:31;;;;;;;6.07;2.67;;;20.20;72.10;;;;;;10412826;28;20045;-57
2022/06/08 22:31:32;;;;;;;4.18;3.20;;;20.20;72.00;;;;;;10413245;28;20389;-57
2022/06/08 22:36:33;;;;;;;5.68;3.38;;;20.20;72.10;;;;;;10412800;28;20057;-57
2022/06/08 22:41:34;;;;;;;5.88;3.22;;;20.20;72.00;;;;;;10412934;28;20466;-57
2022/06/08 22:46:34;;;;;;;5.38;2.78;;;20.20;71.90;;;;;;10412873;28;20052;-57
2022/06/08 22:51:35;;;;;;;2.95;2.22;;;20.20;71.90;;;;;;10428397;28;20026;-56
2022/06/08 22:56:36;;;;;;;3.08;2.63;;;20.20;71.90;;;;;;10420648;28;20076;-56
2022/06/08 23:01:37;;;;;;;4.05;2.85;;;20.20;71.80;;;;;;10418802;28;20052;-57
2022/06/08 23:06:37;;;;;;;3.78;2.47;;;20.20;71.80;;;;;;10420212;28;20035;-57
2022/06/08 23:11:41;;;;;;;5.30;3.08;;;20.20;71.70;;;;;;10419035;28;20052;-57
2022/06/08 23:22:02;;;;;;;7.03;3.13;;;20.20;71.80;;;;;;10420221;28;20041;-56
2022/06/08 23:27:04;;;;;;;4.30;2.38;;;20.20;71.70;;;;;;10419361;28;20025;-57
2022/06/08 23:32:06;;;;;;;4.20;2.90;;;20.10;71.70;;;;;;10418535;28;20409;-57
2022/06/08 23:37:07;;;;;;;3.97;2.70;;;20.10;71.60;;;;;;10418814;28;20034;-57
2022/06/08 23:42:08;;;;;;;3.70;2.30;;;20.10;71.60;;;;;;10415563;28;20290;-57
2022/06/08 23:47:08;;;;;;;3.63;2.35;;;20.10;71.60;;;;;;10417412;28;20124;-57
2022/06/08 23:52:10;;;;;;;6.82;2.72;;;20.10;71.60;;;;;;10425010;28;20158;-57
2022/06/08 23:57:11;;;;;;;5.20;2.60;;;20.10;71.50;;;;;;10418605;28;20041;-57
